Terminal Aerodrome Forecast
Issued by NWS

Home | Current Version | Previous Version | Text Only | Print | Product List | Glossary On
Versions: 1 2 3 4 5 6 7 8 9 10 11 12 13 14 15 16 17 18 19
034
FTUS43 KDVN 010520
TAFBRL
TAF
KBRL 010520Z 0106/0206 01010KT P6SM BKN012 OVC025
      TEMPO 0106/0110 5SM -DZRA BR BKN007 OVC010
     FM011200 02008KT P6SM VCSH BKN007 OVC015
     FM011700 03006KT P6SM VCSH BKN018 OVC030=

USA.gov is the U.S. government's official web portal to all federal, state and local government web resources and services.